KTWF/TWF METAR and TAF weather

Enter ICAO airport designator
Station Type Date Time Source
KTWF METAR 2021/09/20 04:53 UTC NOAA

KTWF 200453Z AUTO 20009KT 10SM CLR 07/04 A3020 RMK AO2 SLP209 T00720039


Station Type Date Time Source
KTWF Decoded METAR 2021/09/20 04:53 UTC NOAA

JOSLIN FLD-MAGIC VALLEY REGL, ID, United States (KTWF) 42-29N 114-29W 1266M
Sep 20, 2021 - 12:53 AM EDT / 2021.09.20 0453 UTC
Wind: from the SSW (200 degrees) at 10 MPH (9 KT):0
Visibility: 10 mile(s):0
Sky conditions: clear
Temperature: 45.0 F (7.2 C)
Dew Point: 39.0 F (3.9 C)
Relative Humidity: 79%
Pressure (altimeter): 30.2 in. Hg (1022 hPa)
ob: KTWF 200453Z AUTO 20009KT 10SM CLR 07/04 A3020 RMK AO2 SLP209 T00720039
cycle: 5

Station Type Date Time Source
KTWF TAF 2021/09/20 02:28 UTC NOAA

TAF
AMD KTWF 200226Z 2002/2024 24012KT P6SM VCSH BKN050
FM200800 24015G25KT P6SM SKC
FM201800 27012G30KT P6SM SKC

Example: see airport list